sensor_id;sensor_type;location;lat;lon;timestamp;temperature;humidity
15690;DHT22;7945;48.816;11.506;2023-08-06T00:00:31;18.20;99.90
15690;DHT22;7945;48.816;11.506;2023-08-06T00:02:57;18.10;99.90
15690;DHT22;7945;48.816;11.506;2023-08-06T00:05:24;18.00;99.90
15690;DHT22;7945;48.816;11.506;2023-08-06T00:07:52;18.00;99.90
15690;DHT22;7945;48.816;11.506;2023-08-06T00:10:19;18.00;99.90
15690;DHT22;7945;48.816;11.506;2023-08-06T00:12:46;18.00;99.90
15690;DHT22;7945;48.816;11.506;2023-08-06T00:15:13;18.00;99.90
15690;DHT22;7945;48.816;11.506;2023-08-06T00:17:40;18.00;99.90
15690;DHT22;7945;48.816;11.506;2023-08-06T00:20:08;17.90;99.90
15690;DHT22;7945;48.816;11.506;2023-08-06T00:22:35;17.90;99.90
15690;DHT22;7945;48.816;11.506;2023-08-06T00:25:05;17.90;99.90
15690;DHT22;7945;48.816;11.506;2023-08-06T00:27:32;18.00;99.90
15690;DHT22;7945;48.816;11.506;2023-08-06T00:29:59;18.00;99.90
15690;DHT22;7945;48.816;11.506;2023-08-06T00:32:25;18.00;99.90
15690;DHT22;7945;48.816;11.506;2023-08-06T00:34:52;18.00;99.90
15690;DHT22;7945;48.816;11.506;2023-08-06T00:37:19;17.90;99.90
15690;DHT22;7945;48.816;11.506;2023-08-06T00:39:46;17.90;99.90
15690;DHT22;7945;48.816;11.506;2023-08-06T00:42:14;17.90;99.90
15690;DHT22;7945;48.816;11.506;2023-08-06T00:44:41;18.00;99.90
15690;DHT22;7945;48.816;11.506;2023-08-06T00:47:08;18.00;99.90
15690;DHT22;7945;48.816;11.506;2023-08-06T00:49:36;18.00;99.90
15690;DHT22;7945;48.816;11.506;2023-08-06T00:52:04;18.00;99.90
15690;DHT22;7945;48.816;11.506;2023-08-06T00:54:32;17.90;99.90
15690;DHT22;7945;48.816;11.506;2023-08-06T00:56:59;18.00;99.90
15690;DHT22;7945;48.816;11.506;2023-08-06T00:59:29;18.00;99.90
15690;DHT22;7945;48.816;11.506;2023-08-06T01:01:56;17.90;99.90
15690;DHT22;7945;48.816;11.506;2023-08-06T01:04:23;17.90;99.90
15690;DHT22;7945;48.816;11.506;2023-08-06T01:06:59;17.80;99.90
15690;DHT22;7945;48.816;11.506;2023-08-06T01:09:34;17.80;99.90
15690;DHT22;7945;48.816;11.506;2023-08-06T01:15:30;17.80;99.90
15690;DHT22;7945;48.816;11.506;2023-08-06T01:17:58;17.80;99.90
15690;DHT22;7945;48.816;11.506;2023-08-06T01:20:29;17.80;99.90
15690;DHT22;7945;48.816;11.506;2023-08-06T01:22:56;17.80;99.90
15690;DHT22;7945;48.816;11.506;2023-08-06T01:25:28;17.80;99.90
15690;DHT22;7945;48.816;11.506;2023-08-06T01:28:04;17.90;99.90
15690;DHT22;7945;48.816;11.506;2023-08-06T01:30:34;17.90;99.90
15690;DHT22;7945;48.816;11.506;2023-08-06T01:33:10;17.80;99.90
15690;DHT22;7945;48.816;11.506;2023-08-06T01:35:42;17.80;99.90
15690;DHT22;7945;48.816;11.506;2023-08-06T01:38:09;17.80;99.90
15690;DHT22;7945;48.816;11.506;2023-08-06T01:40:36;17.80;99.90
15690;DHT22;7945;48.816;11.506;2023-08-06T01:43:03;17.80;99.90
15690;DHT22;7945;48.816;11.506;2023-08-06T01:45:29;17.80;99.90
15690;DHT22;7945;48.816;11.506;2023-08-06T01:47:55;17.60;99.90
15690;DHT22;7945;48.816;11.506;2023-08-06T01:50:22;17.60;99.90
15690;DHT22;7945;48.816;11.506;2023-08-06T01:52:50;17.60;99.90
15690;DHT22;7945;48.816;11.506;2023-08-06T01:55:17;17.60;99.90
15690;DHT22;7945;48.816;11.506;2023-08-06T01:57:44;17.60;99.90
15690;DHT22;7945;48.816;11.506;2023-08-06T02:00:11;17.50;99.90
15690;DHT22;7945;48.816;11.506;2023-08-06T02:02:38;17.50;99.90
15690;DHT22;7945;48.816;11.506;2023-08-06T02:05:06;17.50;99.90
15690;DHT22;7945;48.816;11.506;2023-08-06T02:07:33;17.40;99.90
15690;DHT22;7945;48.816;11.506;2023-08-06T02:10:01;17.40;99.90
15690;DHT22;7945;48.816;11.506;2023-08-06T02:12:28;17.40;99.90
15690;DHT22;7945;48.816;11.506;2023-08-06T02:14:54;17.30;99.90
15690;DHT22;7945;48.816;11.506;2023-08-06T02:17:21;17.30;99.90
15690;DHT22;7945;48.816;11.506;2023-08-06T02:19:48;17.30;99.90
15690;DHT22;7945;48.816;11.506;2023-08-06T02:22:15;17.30;99.90
15690;DHT22;7945;48.816;11.506;2023-08-06T02:24:41;17.40;99.90
15690;DHT22;7945;48.816;11.506;2023-08-06T02:27:09;17.30;99.90
15690;DHT22;7945;48.816;11.506;2023-08-06T02:29:36;17.30;99.90
15690;DHT22;7945;48.816;11.506;2023-08-06T02:32:03;17.30;99.90
15690;DHT22;7945;48.816;11.506;2023-08-06T02:34:30;17.30;99.90
15690;DHT22;7945;48.816;11.506;2023-08-06T02:36:57;17.30;99.90
15690;DHT22;7945;48.816;11.506;2023-08-06T02:39:24;17.30;99.90
15690;DHT22;7945;48.816;11.506;2023-08-06T02:41:51;17.30;99.90
15690;DHT22;7945;48.816;11.506;2023-08-06T02:44:19;17.30;99.90
15690;DHT22;7945;48.816;11.506;2023-08-06T02:46:45;17.30;99.90
15690;DHT22;7945;48.816;11.506;2023-08-06T02:49:12;17.30;99.90
15690;DHT22;7945;48.816;11.506;2023-08-06T02:51:39;17.40;99.90
15690;DHT22;7945;48.816;11.506;2023-08-06T02:54:05;17.40;99.90
15690;DHT22;7945;48.816;11.506;2023-08-06T02:56:32;17.30;99.90
15690;DHT22;7945;48.816;11.506;2023-08-06T02:58:59;17.30;99.90
15690;DHT22;7945;48.816;11.506;2023-08-06T03:01:27;17.30;99.90
15690;DHT22;7945;48.816;11.506;2023-08-06T03:03:54;17.40;99.90
15690;DHT22;7945;48.816;11.506;2023-08-06T03:06:21;17.30;99.90
15690;DHT22;7945;48.816;11.506;2023-08-06T03:08:48;17.30;99.90
15690;DHT22;7945;48.816;11.506;2023-08-06T03:11:15;17.20;99.90
15690;DHT22;7945;48.816;11.506;2023-08-06T03:13:42;17.20;99.90
15690;DHT22;7945;48.816;11.506;2023-08-06T03:16:08;17.20;99.90
15690;DHT22;7945;48.816;11.506;2023-08-06T03:18:36;17.20;99.90
15690;DHT22;7945;48.816;11.506;2023-08-06T03:21:03;17.30;99.90
15690;DHT22;7945;48.816;11.506;2023-08-06T03:23:30;17.30;99.90
15690;DHT22;7945;48.816;11.506;2023-08-06T03:26:01;17.30;99.90
15690;DHT22;7945;48.816;11.506;2023-08-06T03:28:28;17.30;99.90
15690;DHT22;7945;48.816;11.506;2023-08-06T03:30:59;17.30;99.90
15690;DHT22;7945;48.816;11.506;2023-08-06T03:33:26;17.30;99.90
15690;DHT22;7945;48.816;11.506;2023-08-06T03:35:54;17.30;99.90
15690;DHT22;7945;48.816;11.506;2023-08-06T03:38:21;17.30;99.90
15690;DHT22;7945;48.816;11.506;2023-08-06T03:40:49;17.20;99.90
15690;DHT22;7945;48.816;11.506;2023-08-06T03:43:14;17.20;99.90
15690;DHT22;7945;48.816;11.506;2023-08-06T03:45:41;17.20;99.90
15690;DHT22;7945;48.816;11.506;2023-08-06T03:48:08;17.20;99.90
15690;DHT22;7945;48.816;11.506;2023-08-06T03:50:35;17.20;99.90
15690;DHT22;7945;48.816;11.506;2023-08-06T03:53:03;17.20;99.90
15690;DHT22;7945;48.816;11.506;2023-08-06T03:55:30;17.20;99.90
15690;DHT22;7945;48.816;11.506;2023-08-06T03:57:57;17.20;99.90
15690;DHT22;7945;48.816;11.506;2023-08-06T04:00:24;17.20;99.90
15690;DHT22;7945;48.816;11.506;2023-08-06T04:02:50;17.20;99.90
15690;DHT22;7945;48.816;11.506;2023-08-06T04:05:17;17.20;99.90
15690;DHT22;7945;48.816;11.506;2023-08-06T04:07:44;17.20;99.90
15690;DHT22;7945;48.816;11.506;2023-08-06T04:10:12;17.20;99.90
15690;DHT22;7945;48.816;11.506;2023-08-06T04:12:39;17.30;99.90
15690;DHT22;7945;48.816;11.506;2023-08-06T04:15:07;17.30;99.90
15690;DHT22;7945;48.816;11.506;2023-08-06T04:17:33;17.20;99.90
15690;DHT22;7945;48.816;11.506;2023-08-06T04:20:00;17.20;99.90
15690;DHT22;7945;48.816;11.506;2023-08-06T04:22:27;17.20;99.90
15690;DHT22;7945;48.816;11.506;2023-08-06T04:24:54;17.20;99.90
15690;DHT22;7945;48.816;11.506;2023-08-06T04:27:22;17.20;99.90
15690;DHT22;7945;48.816;11.506;2023-08-06T04:29:49;17.20;99.90
15690;DHT22;7945;48.816;11.506;2023-08-06T04:32:16;17.30;99.90
15690;DHT22;7945;48.816;11.506;2023-08-06T04:34:42;17.30;99.90
15690;DHT22;7945;48.816;11.506;2023-08-06T04:37:09;17.20;99.90
15690;DHT22;7945;48.816;11.506;2023-08-06T04:39:36;17.20;99.90
15690;DHT22;7945;48.816;11.506;2023-08-06T04:42:04;17.20;99.90
15690;DHT22;7945;48.816;11.506;2023-08-06T04:44:32;17.20;99.90
15690;DHT22;7945;48.816;11.506;2023-08-06T04:46:59;17.30;99.90
15690;DHT22;7945;48.816;11.506;2023-08-06T04:49:25;17.20;99.90
15690;DHT22;7945;48.816;11.506;2023-08-06T04:51:52;17.20;99.90
15690;DHT22;7945;48.816;11.506;2023-08-06T04:54:19;17.20;99.90
15690;DHT22;7945;48.816;11.506;2023-08-06T04:56:45;17.20;99.90
15690;DHT22;7945;48.816;11.506;2023-08-06T04:59:12;17.20;99.90
15690;DHT22;7945;48.816;11.506;2023-08-06T05:01:40;17.30;99.90
15690;DHT22;7945;48.816;11.506;2023-08-06T05:04:07;17.30;99.90
15690;DHT22;7945;48.816;11.506;2023-08-06T05:06:34;17.40;99.90
15690;DHT22;7945;48.816;11.506;2023-08-06T05:09:00;17.40;99.90
15690;DHT22;7945;48.816;11.506;2023-08-06T05:11:27;17.40;99.90
15690;DHT22;7945;48.816;11.506;2023-08-06T05:13:54;17.50;99.90
15690;DHT22;7945;48.816;11.506;2023-08-06T05:16:21;17.60;99.90
15690;DHT22;7945;48.816;11.506;2023-08-06T05:18:49;17.60;99.90
15690;DHT22;7945;48.816;11.506;2023-08-06T05:21:15;17.60;99.90
15690;DHT22;7945;48.816;11.506;2023-08-06T05:23:42;17.60;99.90
15690;DHT22;7945;48.816;11.506;2023-08-06T05:26:09;17.50;99.90
15690;DHT22;7945;48.816;11.506;2023-08-06T05:28:36;17.60;99.90
15690;DHT22;7945;48.816;11.506;2023-08-06T05:31:03;17.70;99.90
15690;DHT22;7945;48.816;11.506;2023-08-06T05:33:30;18.10;99.90
15690;DHT22;7945;48.816;11.506;2023-08-06T05:35:58;19.10;99.90
15690;DHT22;7945;48.816;11.506;2023-08-06T05:38:25;20.50;99.90
15690;DHT22;7945;48.816;11.506;2023-08-06T05:40:52;21.30;99.90
15690;DHT22;7945;48.816;11.506;2023-08-06T05:43:18;21.60;99.90
15690;DHT22;7945;48.816;11.506;2023-08-06T05:45:45;21.30;99.90
15690;DHT22;7945;48.816;11.506;2023-08-06T05:48:12;20.70;99.90
15690;DHT22;7945;48.816;11.506;2023-08-06T05:50:39;20.10;99.90
15690;DHT22;7945;48.816;11.506;2023-08-06T05:53:07;19.60;99.90
15690;DHT22;7945;48.816;11.506;2023-08-06T05:55:34;19.20;99.90
15690;DHT22;7945;48.816;11.506;2023-08-06T05:58:01;18.80;99.90
15690;DHT22;7945;48.816;11.506;2023-08-06T06:00:28;18.60;99.90
15690;DHT22;7945;48.816;11.506;2023-08-06T06:02:54;18.40;99.90
15690;DHT22;7945;48.816;11.506;2023-08-06T06:05:21;18.40;99.90
15690;DHT22;7945;48.816;11.506;2023-08-06T06:07:48;18.30;99.90
15690;DHT22;7945;48.816;11.506;2023-08-06T06:10:16;18.20;99.90
15690;DHT22;7945;48.816;11.506;2023-08-06T06:15:39;19.50;99.90
15690;DHT22;7945;48.816;11.506;2023-08-06T06:18:06;17.90;99.90
15690;DHT22;7945;48.816;11.506;2023-08-06T06:20:32;17.80;99.90
15690;DHT22;7945;48.816;11.506;2023-08-06T06:22:59;17.90;99.90
15690;DHT22;7945;48.816;11.506;2023-08-06T06:25:26;17.90;99.90
15690;DHT22;7945;48.816;11.506;2023-08-06T06:27:53;17.90;99.90
15690;DHT22;7945;48.816;11.506;2023-08-06T06:30:20;17.90;99.90
15690;DHT22;7945;48.816;11.506;2023-08-06T06:32:48;17.90;99.90
15690;DHT22;7945;48.816;11.506;2023-08-06T06:35:15;17.90;99.90
15690;DHT22;7945;48.816;11.506;2023-08-06T06:37:42;17.90;99.90
15690;DHT22;7945;48.816;11.506;2023-08-06T06:40:09;17.90;99.90
15690;DHT22;7945;48.816;11.506;2023-08-06T06:42:36;17.70;99.90
15690;DHT22;7945;48.816;11.506;2023-08-06T06:45:03;17.70;99.90
15690;DHT22;7945;48.816;11.506;2023-08-06T06:47:30;17.70;99.90
15690;DHT22;7945;48.816;11.506;2023-08-06T06:49:58;17.70;99.90
15690;DHT22;7945;48.816;11.506;2023-08-06T06:52:25;17.70;99.90
15690;DHT22;7945;48.816;11.506;2023-08-06T06:54:52;17.70;99.90
15690;DHT22;7945;48.816;11.506;2023-08-06T06:57:18;17.80;99.90
15690;DHT22;7945;48.816;11.506;2023-08-06T06:59:45;17.80;99.90
15690;DHT22;7945;48.816;11.506;2023-08-06T07:02:12;17.70;99.90
15690;DHT22;7945;48.816;11.506;2023-08-06T07:04:39;17.70;99.90
15690;DHT22;7945;48.816;11.506;2023-08-06T07:07:07;17.80;99.90
15690;DHT22;7945;48.816;11.506;2023-08-06T07:09:33;17.90;99.90
15690;DHT22;7945;48.816;11.506;2023-08-06T07:12:00;18.20;99.90
15690;DHT22;7945;48.816;11.506;2023-08-06T07:14:28;18.40;99.90
15690;DHT22;7945;48.816;11.506;2023-08-06T07:16:55;18.50;99.90
15690;DHT22;7945;48.816;11.506;2023-08-06T07:19:23;18.60;99.90
15690;DHT22;7945;48.816;11.506;2023-08-06T07:21:49;18.60;99.90
15690;DHT22;7945;48.816;11.506;2023-08-06T07:24:17;18.60;99.90
15690;DHT22;7945;48.816;11.506;2023-08-06T07:26:44;18.50;99.90
15690;DHT22;7945;48.816;11.506;2023-08-06T07:29:11;18.40;99.90
15690;DHT22;7945;48.816;11.506;2023-08-06T07:31:38;18.40;99.90
15690;DHT22;7945;48.816;11.506;2023-08-06T07:34:04;18.40;99.90
15690;DHT22;7945;48.816;11.506;2023-08-06T07:36:31;18.30;99.90
15690;DHT22;7945;48.816;11.506;2023-08-06T07:38:58;18.20;99.90
15690;DHT22;7945;48.816;11.506;2023-08-06T07:41:26;18.20;99.90
15690;DHT22;7945;48.816;11.506;2023-08-06T07:43:53;18.30;99.90
15690;DHT22;7945;48.816;11.506;2023-08-06T07:46:19;18.30;99.90
15690;DHT22;7945;48.816;11.506;2023-08-06T07:48:46;18.20;99.90
15690;DHT22;7945;48.816;11.506;2023-08-06T07:51:13;18.20;99.90
15690;DHT22;7945;48.816;11.506;2023-08-06T07:53:40;18.20;99.90
15690;DHT22;7945;48.816;11.506;2023-08-06T07:56:06;18.20;99.90
15690;DHT22;7945;48.816;11.506;2023-08-06T07:58:34;18.20;99.90
15690;DHT22;7945;48.816;11.506;2023-08-06T08:01:01;18.20;99.90
15690;DHT22;7945;48.816;11.506;2023-08-06T08:03:28;18.20;99.90
15690;DHT22;7945;48.816;11.506;2023-08-06T08:05:55;18.30;99.90
15690;DHT22;7945;48.816;11.506;2023-08-06T08:08:24;18.20;99.90
15690;DHT22;7945;48.816;11.506;2023-08-06T08:10:50;18.20;99.90
15690;DHT22;7945;48.816;11.506;2023-08-06T08:13:17;18.20;99.90
15690;DHT22;7945;48.816;11.506;2023-08-06T08:15:45;18.20;99.90
15690;DHT22;7945;48.816;11.506;2023-08-06T08:18:12;18.20;99.90
15690;DHT22;7945;48.816;11.506;2023-08-06T08:20:39;18.20;99.90
15690;DHT22;7945;48.816;11.506;2023-08-06T08:23:06;18.30;99.90
15690;DHT22;7945;48.816;11.506;2023-08-06T08:25:32;18.30;99.90
15690;DHT22;7945;48.816;11.506;2023-08-06T08:27:59;18.30;99.90
15690;DHT22;7945;48.816;11.506;2023-08-06T08:30:26;18.40;99.90
15690;DHT22;7945;48.816;11.506;2023-08-06T08:32:54;18.50;99.90
15690;DHT22;7945;48.816;11.506;2023-08-06T08:35:21;18.70;99.90
15690;DHT22;7945;48.816;11.506;2023-08-06T08:37:47;18.80;99.90
15690;DHT22;7945;48.816;11.506;2023-08-06T08:40:14;18.90;99.90
15690;DHT22;7945;48.816;11.506;2023-08-06T08:42:42;19.00;99.90
15690;DHT22;7945;48.816;11.506;2023-08-06T08:45:12;19.00;99.90
15690;DHT22;7945;48.816;11.506;2023-08-06T08:47:40;18.80;99.90
15690;DHT22;7945;48.816;11.506;2023-08-06T08:50:10;18.50;99.90
15690;DHT22;7945;48.816;11.506;2023-08-06T08:52:38;18.50;99.90
15690;DHT22;7945;48.816;11.506;2023-08-06T08:55:07;18.30;99.90
15690;DHT22;7945;48.816;11.506;2023-08-06T08:57:34;18.20;99.90
15690;DHT22;7945;48.816;11.506;2023-08-06T09:00:01;18.20;99.90
15690;DHT22;7945;48.816;11.506;2023-08-06T09:02:28;18.30;99.90
15690;DHT22;7945;48.816;11.506;2023-08-06T09:04:56;18.20;99.90
15690;DHT22;7945;48.816;11.506;2023-08-06T09:07:27;18.20;99.90
15690;DHT22;7945;48.816;11.506;2023-08-06T09:09:54;18.30;99.90
15690;DHT22;7945;48.816;11.506;2023-08-06T09:12:22;18.30;99.90
15690;DHT22;7945;48.816;11.506;2023-08-06T09:14:49;18.30;99.90
15690;DHT22;7945;48.816;11.506;2023-08-06T09:17:16;18.20;99.90
15690;DHT22;7945;48.816;11.506;2023-08-06T09:19:45;18.20;99.90
15690;DHT22;7945;48.816;11.506;2023-08-06T09:22:14;18.10;99.90
15690;DHT22;7945;48.816;11.506;2023-08-06T09:24:42;18.20;99.90
15690;DHT22;7945;48.816;11.506;2023-08-06T09:27:12;18.30;99.90
15690;DHT22;7945;48.816;11.506;2023-08-06T09:29:43;18.50;99.90
15690;DHT22;7945;48.816;11.506;2023-08-06T09:32:10;18.60;99.90
15690;DHT22;7945;48.816;11.506;2023-08-06T09:34:39;18.60;99.90
15690;DHT22;7945;48.816;11.506;2023-08-06T09:37:08;18.60;99.90
15690;DHT22;7945;48.816;11.506;2023-08-06T09:39:34;18.60;99.90
15690;DHT22;7945;48.816;11.506;2023-08-06T09:42:03;18.60;99.90
15690;DHT22;7945;48.816;11.506;2023-08-06T09:44:32;18.50;99.90
15690;DHT22;7945;48.816;11.506;2023-08-06T09:47:00;18.40;99.90
15690;DHT22;7945;48.816;11.506;2023-08-06T09:49:27;18.10;99.90
15690;DHT22;7945;48.816;11.506;2023-08-06T09:51:55;17.90;99.90
15690;DHT22;7945;48.816;11.506;2023-08-06T09:54:23;17.60;99.90
15690;DHT22;7945;48.816;11.506;2023-08-06T09:56:52;17.50;99.90
15690;DHT22;7945;48.816;11.506;2023-08-06T09:59:20;17.50;99.90
15690;DHT22;7945;48.816;11.506;2023-08-06T10:01:48;17.50;99.90
15690;DHT22;7945;48.816;11.506;2023-08-06T10:04:15;17.70;99.90
15690;DHT22;7945;48.816;11.506;2023-08-06T10:06:46;18.00;99.90
15690;DHT22;7945;48.816;11.506;2023-08-06T10:09:13;18.20;99.90
15690;DHT22;7945;48.816;11.506;2023-08-06T10:11:40;18.40;99.90
15690;DHT22;7945;48.816;11.506;2023-08-06T10:14:11;18.60;99.90
15690;DHT22;7945;48.816;11.506;2023-08-06T10:16:41;18.80;99.90
15690;DHT22;7945;48.816;11.506;2023-08-06T10:19:10;19.00;99.90
15690;DHT22;7945;48.816;11.506;2023-08-06T10:21:38;19.20;99.90
15690;DHT22;7945;48.816;11.506;2023-08-06T10:24:07;19.30;99.90
15690;DHT22;7945;48.816;11.506;2023-08-06T10:26:35;19.40;99.90
15690;DHT22;7945;48.816;11.506;2023-08-06T10:29:02;19.60;99.90
15690;DHT22;7945;48.816;11.506;2023-08-06T10:31:58;19.80;99.90
15690;DHT22;7945;48.816;11.506;2023-08-06T10:34:59;19.70;99.90
15690;DHT22;7945;48.816;11.506;2023-08-06T10:37:35;19.60;99.30
15690;DHT22;7945;48.816;11.506;2023-08-06T10:40:03;19.40;99.80
15690;DHT22;7945;48.816;11.506;2023-08-06T10:42:32;19.40;99.90
15690;DHT22;7945;48.816;11.506;2023-08-06T10:45:12;19.30;99.90
15690;DHT22;7945;48.816;11.506;2023-08-06T10:47:42;19.20;99.90
15690;DHT22;7945;48.816;11.506;2023-08-06T10:50:11;19.10;99.90
15690;DHT22;7945;48.816;11.506;2023-08-06T10:52:38;19.10;99.90
15690;DHT22;7945;48.816;11.506;2023-08-06T10:55:05;18.90;99.90
15690;DHT22;7945;48.816;11.506;2023-08-06T10:57:32;18.80;99.90
15690;DHT22;7945;48.816;11.506;2023-08-06T10:59:59;18.60;99.90
15690;DHT22;7945;48.816;11.506;2023-08-06T11:02:25;18.60;99.90
15690;DHT22;7945;48.816;11.506;2023-08-06T11:04:54;18.70;99.90
15690;DHT22;7945;48.816;11.506;2023-08-06T11:07:20;18.70;99.90
15690;DHT22;7945;48.816;11.506;2023-08-06T11:09:50;18.90;99.90
15690;DHT22;7945;48.816;11.506;2023-08-06T11:12:18;19.10;99.90
15690;DHT22;7945;48.816;11.506;2023-08-06T11:14:50;19.30;99.90
15690;DHT22;7945;48.816;11.506;2023-08-06T11:17:17;19.30;99.90
15690;DHT22;7945;48.816;11.506;2023-08-06T11:19:44;19.30;99.90
15690;DHT22;7945;48.816;11.506;2023-08-06T11:22:12;19.20;99.90
15690;DHT22;7945;48.816;11.506;2023-08-06T11:24:39;19.20;99.90
15690;DHT22;7945;48.816;11.506;2023-08-06T11:27:11;19.20;99.80
15690;DHT22;7945;48.816;11.506;2023-08-06T11:29:38;19.20;99.90
15690;DHT22;7945;48.816;11.506;2023-08-06T11:32:05;19.00;99.90
15690;DHT22;7945;48.816;11.506;2023-08-06T11:34:32;18.70;99.90
15690;DHT22;7945;48.816;11.506;2023-08-06T11:36:59;18.40;99.90
15690;DHT22;7945;48.816;11.506;2023-08-06T11:39:27;18.30;99.90
15690;DHT22;7945;48.816;11.506;2023-08-06T11:41:54;18.20;99.90
15690;DHT22;7945;48.816;11.506;2023-08-06T11:44:22;18.10;99.90
15690;DHT22;7945;48.816;11.506;2023-08-06T11:46:50;17.90;99.90
15690;DHT22;7945;48.816;11.506;2023-08-06T11:49:18;17.90;99.90
15690;DHT22;7945;48.816;11.506;2023-08-06T11:51:47;17.80;99.90
15690;DHT22;7945;48.816;11.506;2023-08-06T11:54:14;17.80;99.90
15690;DHT22;7945;48.816;11.506;2023-08-06T11:56:42;17.80;99.90
15690;DHT22;7945;48.816;11.506;2023-08-06T11:59:09;17.80;99.90
15690;DHT22;7945;48.816;11.506;2023-08-06T12:01:36;17.90;99.90
15690;DHT22;7945;48.816;11.506;2023-08-06T12:04:04;18.50;99.90
15690;DHT22;7945;48.816;11.506;2023-08-06T12:06:41;18.10;99.90
15690;DHT22;7945;48.816;11.506;2023-08-06T12:09:08;18.20;99.90
15690;DHT22;7945;48.816;11.506;2023-08-06T12:11:35;18.10;99.90
15690;DHT22;7945;48.816;11.506;2023-08-06T12:14:03;18.10;99.90
15690;DHT22;7945;48.816;11.506;2023-08-06T12:16:30;18.10;99.90
15690;DHT22;7945;48.816;11.506;2023-08-06T12:18:57;18.20;99.90
15690;DHT22;7945;48.816;11.506;2023-08-06T12:21:24;18.30;99.90
15690;DHT22;7945;48.816;11.506;2023-08-06T12:23:50;18.30;99.90
15690;DHT22;7945;48.816;11.506;2023-08-06T12:26:17;18.20;99.90
15690;DHT22;7945;48.816;11.506;2023-08-06T12:28:44;18.30;99.90
15690;DHT22;7945;48.816;11.506;2023-08-06T12:31:12;18.30;99.90
15690;DHT22;7945;48.816;11.506;2023-08-06T12:33:39;18.40;99.90
15690;DHT22;7945;48.816;11.506;2023-08-06T12:36:05;18.40;99.90
15690;DHT22;7945;48.816;11.506;2023-08-06T12:38:32;18.40;99.90
15690;DHT22;7945;48.816;11.506;2023-08-06T12:40:59;18.40;99.90
15690;DHT22;7945;48.816;11.506;2023-08-06T12:43:26;18.30;99.90
15690;DHT22;7945;48.816;11.506;2023-08-06T12:45:52;18.60;99.90
15690;DHT22;7945;48.816;11.506;2023-08-06T12:48:21;18.50;99.90
15690;DHT22;7945;48.816;11.506;2023-08-06T12:50:47;18.50;99.90
15690;DHT22;7945;48.816;11.506;2023-08-06T12:53:15;18.40;99.90
15690;DHT22;7945;48.816;11.506;2023-08-06T12:55:41;18.30;99.90
15690;DHT22;7945;48.816;11.506;2023-08-06T12:58:08;18.20;99.90
15690;DHT22;7945;48.816;11.506;2023-08-06T13:00:35;18.10;99.90
15690;DHT22;7945;48.816;11.506;2023-08-06T13:03:02;17.90;99.90
15690;DHT22;7945;48.816;11.506;2023-08-06T13:05:31;17.60;99.90
15690;DHT22;7945;48.816;11.506;2023-08-06T13:07:58;17.40;99.90
15690;DHT22;7945;48.816;11.506;2023-08-06T13:10:24;17.30;99.90
15690;DHT22;7945;48.816;11.506;2023-08-06T13:12:52;17.20;99.90
15690;DHT22;7945;48.816;11.506;2023-08-06T13:15:20;17.20;99.90
15690;DHT22;7945;48.816;11.506;2023-08-06T13:17:47;17.30;99.90
15690;DHT22;7945;48.816;11.506;2023-08-06T13:20:14;17.40;99.90
15690;DHT22;7945;48.816;11.506;2023-08-06T13:22:42;17.60;99.90
15690;DHT22;7945;48.816;11.506;2023-08-06T13:25:11;17.70;99.90
15690;DHT22;7945;48.816;11.506;2023-08-06T13:27:40;17.90;99.90
15690;DHT22;7945;48.816;11.506;2023-08-06T13:30:08;18.00;99.90
15690;DHT22;7945;48.816;11.506;2023-08-06T13:32:35;18.00;99.90
15690;DHT22;7945;48.816;11.506;2023-08-06T13:35:03;18.10;99.90
15690;DHT22;7945;48.816;11.506;2023-08-06T13:37:29;18.10;99.90
15690;DHT22;7945;48.816;11.506;2023-08-06T13:39:58;18.20;99.90
15690;DHT22;7945;48.816;11.506;2023-08-06T13:42:24;18.20;99.90
15690;DHT22;7945;48.816;11.506;2023-08-06T13:44:51;18.20;99.90
15690;DHT22;7945;48.816;11.506;2023-08-06T13:47:18;18.00;99.90
15690;DHT22;7945;48.816;11.506;2023-08-06T13:49:45;17.80;99.90
15690;DHT22;7945;48.816;11.506;2023-08-06T13:52:11;17.80;99.90
15690;DHT22;7945;48.816;11.506;2023-08-06T13:54:38;17.70;99.90
15690;DHT22;7945;48.816;11.506;2023-08-06T13:57:06;17.80;99.90
15690;DHT22;7945;48.816;11.506;2023-08-06T13:59:33;17.70;99.90
15690;DHT22;7945;48.816;11.506;2023-08-06T14:02:00;17.80;99.90
15690;DHT22;7945;48.816;11.506;2023-08-06T14:04:26;17.80;99.90
15690;DHT22;7945;48.816;11.506;2023-08-06T14:06:53;17.70;99.90
15690;DHT22;7945;48.816;11.506;2023-08-06T14:09:20;17.60;99.90
15690;DHT22;7945;48.816;11.506;2023-08-06T14:11:47;17.50;99.90
15690;DHT22;7945;48.816;11.506;2023-08-06T14:14:15;17.90;99.90
15690;DHT22;7945;48.816;11.506;2023-08-06T14:16:41;17.30;99.90
15690;DHT22;7945;48.816;11.506;2023-08-06T14:19:08;17.20;99.90
15690;DHT22;7945;48.816;11.506;2023-08-06T14:21:35;17.00;99.90
15690;DHT22;7945;48.816;11.506;2023-08-06T14:24:02;16.90;99.90
15690;DHT22;7945;48.816;11.506;2023-08-06T14:26:29;16.80;99.90
15690;DHT22;7945;48.816;11.506;2023-08-06T14:28:55;16.80;99.90
15690;DHT22;7945;48.816;11.506;2023-08-06T14:31:23;16.80;99.90
15690;DHT22;7945;48.816;11.506;2023-08-06T14:33:50;16.80;99.90
15690;DHT22;7945;48.816;11.506;2023-08-06T14:36:17;16.90;99.90
15690;DHT22;7945;48.816;11.506;2023-08-06T14:38:44;16.80;99.90
15690;DHT22;7945;48.816;11.506;2023-08-06T14:41:10;16.80;99.90
15690;DHT22;7945;48.816;11.506;2023-08-06T14:43:37;16.70;99.90
15690;DHT22;7945;48.816;11.506;2023-08-06T14:46:04;16.60;99.90
15690;DHT22;7945;48.816;11.506;2023-08-06T14:48:32;16.60;99.90
15690;DHT22;7945;48.816;11.506;2023-08-06T14:50:59;16.50;99.90
15690;DHT22;7945;48.816;11.506;2023-08-06T14:53:26;16.50;99.90
15690;DHT22;7945;48.816;11.506;2023-08-06T14:55:54;16.40;99.90
15690;DHT22;7945;48.816;11.506;2023-08-06T14:58:20;16.30;99.90
15690;DHT22;7945;48.816;11.506;2023-08-06T15:00:47;16.30;99.90
15690;DHT22;7945;48.816;11.506;2023-08-06T15:03:14;16.20;99.90
15690;DHT22;7945;48.816;11.506;2023-08-06T15:05:46;16.20;99.90
15690;DHT22;7945;48.816;11.506;2023-08-06T15:08:13;16.20;99.90
15690;DHT22;7945;48.816;11.506;2023-08-06T15:10:39;16.20;99.90
15690;DHT22;7945;48.816;11.506;2023-08-06T15:13:06;16.20;99.90
15690;DHT22;7945;48.816;11.506;2023-08-06T15:15:33;16.10;99.90
15690;DHT22;7945;48.816;11.506;2023-08-06T15:17:59;16.20;99.90
15690;DHT22;7945;48.816;11.506;2023-08-06T15:20:26;16.10;99.90
15690;DHT22;7945;48.816;11.506;2023-08-06T15:22:54;16.00;99.90
15690;DHT22;7945;48.816;11.506;2023-08-06T15:25:23;16.00;99.90
15690;DHT22;7945;48.816;11.506;2023-08-06T15:27:50;16.00;99.90
15690;DHT22;7945;48.816;11.506;2023-08-06T15:30:17;16.00;99.90
15690;DHT22;7945;48.816;11.506;2023-08-06T15:32:45;15.90;99.90
15690;DHT22;7945;48.816;11.506;2023-08-06T15:35:12;15.90;99.90
15690;DHT22;7945;48.816;11.506;2023-08-06T15:37:39;15.90;99.90